| time (UTC) | temp F | wind direction | speed MPH | gust MPH | rain 1hr in | rain 24hr in | rain mn in | humidity % | barometer mb |
| 20260903065524 | 57 | 266 | 0.0 | 1.0 | 0.00 | 0.00 | 0.00 | 31 | 1008.8 |
| 20260903065003 | 56 | 0 | 0.0 | 0.0 | 0.00 | 0.00 | 0.00 | 30 | 1008.8 |
| 20260903064502 | 56 | 0 | 0.0 | 0.0 | 0.00 | 0.00 | 0.00 | 28 | 1008.7 |
| 20260903064003 | 56 | 0 | 0.0 | 0.0 | 0.00 | 0.00 | 0.00 | 25 | 1008.8 |
| 20260903063503 | 55 | 0 | 0.0 | 0.0 | 0.00 | 0.00 | 0.00 | 21 | 1008.8 |
| 20260903063003 | 55 | 67 | 0.0 | 1.0 | 0.00 | 0.00 | 0.00 | 18 | 1008.9 |
| 20260903062503 | 55 | 62 | 0.0 | 1.0 | 0.00 | 0.00 | 0.00 | 19 | 1008.8 |
| 20260903062024 | 54 | 57 | 0.0 | 1.0 | 0.00 | 0.00 | 0.00 | 13 | 1008.8 |
| 20260903061503 | 54 | 0 | 0.0 | 0.0 | 0.00 | 0.00 | 0.00 | 11 | 1008.9 |
| 20260903061003 | 54 | 0 | 0.0 | 0.0 | 0.00 | 0.00 | 0.00 | 7 | 1008.9 |
| 20260903060503 | 53 | 0 | 0.0 | 0.0 | 0.00 | 0.00 | 0.00 | 7 | 1009.0 |
| 20260903060003 | 53 | 0 | 0.0 | 0.0 | 0.00 | 0.00 | 0.00 | 7 | 1009.0 |
| 20260903055503 | 53 | 0 | 0.0 | 0.0 | 0.00 | 0.00 | 0.00 | 7 | 1008.9 |
| 20260903055002 | 52 | 0 | 0.0 | 0.0 | 0.00 | 0.00 | 0.00 | 4 | 1009.0 |
| 20260903054524 | 52 | 0 | 0.0 | 0.0 | 0.00 | 0.00 | 0.00 | 4 | 1009.1 |
| 20260903054024 | 52 | 0 | 0.0 | 0.0 | 0.00 | 0.00 | 0.00 | 6 | 1009.1 |
| 20260903053502 | 52 | 0 | 0.0 | 0.0 | 0.00 | 0.00 | 0.00 | 11 | 1009.1 |
| 20260903053024 | 53 | 0 | 0.0 | 0.0 | 0.00 | 0.00 | 0.00 | 45 | 1009.1 |
| 20260903052503 | 53 | 0 | 0.0 | 0.0 | 0.00 | 0.00 | 0.00 | 45 | 1009.1 |
| 20260903052003 | 53 | 0 | 0.0 | 0.0 | 0.00 | 0.00 | 0.00 | 45 | 1009.1 |
| 20260903051503 | 53 | 0 | 0.0 | 0.0 | 0.00 | 0.00 | 0.00 | 45 | 1009.1 |
| 20260903051024 | 53 | 0 | 0.0 | 0.0 | 0.00 | 0.00 | 0.00 | 45 | 1009.3 |
| 20260903050503 | 53 | 0 | 0.0 | 0.0 | 0.00 | 0.00 | 0.00 | 45 | 1009.3 |
| 20260903050003 | 53 | 0 | 0.0 | 0.0 | 0.00 | 0.00 | 0.00 | 45 | 1009.3 |
| 20260903045503 | 53 | 0 | 0.0 | 0.0 | 0.00 | 0.00 | 0.00 | 45 | 1009.3 |
| 20260903045002 | 53 | 0 | 0.0 | 0.0 | 0.00 | 0.00 | 0.00 | 45 | 1009.3 |
| 20260903044502 | 53 | 0 | 0.0 | 0.0 | 0.00 | 0.00 | 0.00 | 45 | 1009.4 |
| 20260903044003 | 53 | 0 | 0.0 | 0.0 | 0.00 | 0.00 | 0.00 | 45 | 1009.4 |
| 20260903043524 | 53 | 0 | 0.0 | 0.0 | 0.00 | 0.00 | 0.00 | 45 | 1009.4 |
| 20260903043003 | 53 | 0 | 0.0 | 0.0 | 0.00 | 0.00 | 0.00 | 45 | 1009.4 |
| 20260903042503 | 53 | 0 | 0.0 | 0.0 | 0.00 | 0.00 | 0.00 | 45 | 1009.4 |
| 20260903042003 | 53 | 0 | 0.0 | 0.0 | 0.00 | 0.00 | 0.00 | 45 | 1009.4 |
| 20260903041503 | 54 | 0 | 0.0 | 0.0 | 0.00 | 0.00 | 0.00 | 45 | 1009.5 |
| 20260903041003 | 54 | 216 | 0.0 | 1.0 | 0.00 | 0.00 | 0.00 | 48 | 1009.5 |
| 20260903040524 | 54 | 216 | 0.0 | 1.0 | 0.00 | 0.00 | 0.00 | 50 | 1009.6 |
| 20260903040003 | 54 | 0 | 0.0 | 0.0 | 0.00 | 0.00 | 0.00 | 51 | 1009.5 |
| 20260903035502 | 54 | 341 | 0.0 | 2.0 | 0.00 | 0.01 | 0.00 | 51 | 1009.5 |
| 20260903035002 | 54 | 341 | 0.0 | 2.0 | 0.00 | 0.01 | 0.00 | 52 | 1009.5 |
| 20260903034503 | 54 | 0 | 0.0 | 0.0 | 0.00 | 0.01 | 0.00 | 52 | 1009.5 |
| 20260903034003 | 54 | 311 | 0.0 | 3.0 | 0.00 | 0.01 | 0.00 | 54 | 1009.6 |
| 20260903033524 | 54 | 313 | 0.0 | 3.0 | 0.00 | 0.01 | 0.00 | 53 | 1009.5 |
| 20260903033003 | 54 | 69 | 0.0 | 1.0 | 0.00 | 0.01 | 0.00 | 53 | 1009.6 |
| 20260903032503 | 54 | 144 | 0.0 | 3.0 | 0.00 | 0.01 | 0.00 | 53 | 1009.6 |
| 20260903032003 | 53 | 144 | 0.0 | 3.0 | 0.00 | 0.01 | 0.00 | 53 | 1009.6 |
| 20260903031524 | 53 | 269 | 0.0 | 2.0 | 0.00 | 0.01 | 0.00 | 53 | 1009.7 |
| 20260903031003 | 53 | 240 | 0.0 | 2.0 | 0.00 | 0.01 | 0.00 | 53 | 1009.7 |
| 20260903030503 | 53 | 136 | 0.0 | 1.0 | 0.00 | 0.01 | 0.00 | 55 | 1009.8 |
| 20260903030003 | 53 | 136 | 0.0 | 1.0 | 0.00 | 0.01 | 0.00 | 56 | 1009.8 |
| 20260903025502 | 53 | 0 | 0.0 | 0.0 | 0.00 | 0.01 | 0.00 | 57 | 1009.8 |
| 20260903025002 | 53 | 138 | 0.0 | 2.0 | 0.00 | 0.01 | 0.00 | 58 | 1009.8 |
| 20260903024503 | 54 | 134 | 0.0 | 2.0 | 0.00 | 0.01 | 0.00 | 59 | 1009.8 |
| 20260903024003 | 54 | 113 | 0.0 | 1.0 | 0.00 | 0.01 | 0.00 | 61 | 1009.9 |
| 20260903023503 | 54 | 332 | 0.0 | 1.0 | 0.00 | 0.01 | 0.00 | 62 | 1009.8 |
| 20260903023024 | 54 | 256 | 0.0 | 1.0 | 0.00 | 0.01 | 0.00 | 62 | 1009.8 |
| 20260903022503 | 54 | 237 | 0.0 | 1.0 | 0.00 | 0.01 | 0.00 | 63 | 1009.8 |
| 20260903022024 | 54 | 304 | 0.0 | 5.0 | 0.00 | 0.01 | 0.00 | 63 | 1009.8 |
| 20260903021503 | 54 | 312 | 0.0 | 5.0 | 0.00 | 0.01 | 0.00 | 63 | 1009.9 |
| 20260903021003 | 55 | 311 | 1.0 | 5.0 | 0.00 | 0.01 | 0.00 | 63 | 1010.0 |
| 20260903020503 | 55 | 314 | 0.0 | 7.0 | 0.00 | 0.01 | 0.00 | 63 | 1010.0 |
| 20260903020003 | 55 | 318 | 0.0 | 7.0 | 0.00 | 0.01 | 0.00 | 62 | 1010.0 |
| 20260903015502 | 55 | 204 | 0.0 | 3.0 | 0.00 | 0.01 | 0.00 | 61 | 1010.0 |
| 20260903015003 | 55 | 212 | 0.0 | 2.0 | 0.00 | 0.01 | 0.00 | 61 | 1010.0 |
| 20260903014502 | 55 | 311 | 0.0 | 5.0 | 0.00 | 0.01 | 0.00 | 61 | 1010.1 |
| 20260903014002 | 55 | 314 | 1.0 | 7.0 | 0.00 | 0.01 | 0.00 | 61 | 1010.1 |
| 20260903013503 | 55 | 312 | 1.0 | 7.0 | 0.00 | 0.01 | 0.00 | 61 | 1010.2 |
| 20260903013003 | 55 | 315 | 1.0 | 5.0 | 0.00 | 0.01 | 0.00 | 61 | 1010.2 |
| 20260903012503 | 55 | 322 | 0.0 | 5.0 | 0.00 | 0.01 | 0.00 | 61 | 1010.2 |
| 20260903012003 | 55 | 329 | 0.0 | 6.0 | 0.00 | 0.01 | 0.00 | 61 | 1010.1 |
| 20260903011503 | 55 | 313 | 1.0 | 9.0 | 0.00 | 0.01 | 0.00 | 61 | 1010.1 |
| 20260903011003 | 55 | 312 | 1.0 | 9.0 | 0.00 | 0.01 | 0.00 | 61 | 1010.2 |
| 20260903010503 | 55 | 315 | 0.0 | 4.0 | 0.00 | 0.01 | 0.00 | 61 | 1010.2 |
| 20260903010024 | 55 | 340 | 0.0 | 4.0 | 0.00 | 0.01 | 0.00 | 61 | 1010.1 |
| 20260903005524 | 55 | 20 | 0.0 | 2.0 | 0.00 | 0.01 | 0.00 | 61 | 1010.2 |
| 20260903005003 | 56 | 269 | 0.0 | 4.0 | 0.00 | 0.01 | 0.00 | 61 | 1010.1 |
| 20260903004503 | 56 | 334 | 0.0 | 5.0 | 0.00 | 0.01 | 0.00 | 62 | 1010.2 |
| 20260903004002 | 56 | 316 | 1.0 | 8.0 | 0.00 | 0.01 | 0.00 | 62 | 1010.2 |
| 20260903003503 | 56 | 298 | 1.0 | 8.0 | 0.00 | 0.01 | 0.00 | 62 | 1010.2 |
| 20260903003024 | 56 | 293 | 1.0 | 8.0 | 0.00 | 0.01 | 0.00 | 62 | 1010.3 |
| 20260903002502 | 56 | 304 | 1.0 | 5.0 | 0.00 | 0.01 | 0.00 | 62 | 1010.2 |
| 20260903002003 | 56 | 283 | 0.0 | 2.0 | 0.00 | 0.01 | 0.00 | 61 | 1010.2 |
| 20260903001503 | 56 | 295 | 0.0 | 5.0 | 0.00 | 0.01 | 0.00 | 62 | 1010.2 |
| 20260903001003 | 56 | 308 | 0.0 | 5.0 | 0.00 | 0.01 | 0.00 | 62 | 1010.3 |
| 20260903000503 | 56 | 291 | 0.0 | 4.0 | 0.00 | 0.01 | 0.00 | 62 | 1010.3 |
| 20260903000024 | 56 | 287 | 1.0 | 5.0 | 0.00 | 0.01 | 0.00 | 62 | 1010.2 |
| 20260902235524 | 56 | 303 | 0.0 | 5.0 | 0.00 | 0.01 | 0.00 | 61 | 1010.1 |
| 20260902235003 | 56 | 302 | 1.0 | 8.0 | 0.00 | 0.01 | 0.00 | 60 | 1010.1 |
| 20260902234502 | 56 | 297 | 1.0 | 8.0 | 0.00 | 0.01 | 0.00 | 61 | 1010.1 |
| 20260902234002 | 56 | 282 | 1.0 | 5.0 | 0.00 | 0.01 | 0.00 | 61 | 1010.2 |
| 20260902233503 | 56 | 302 | 1.0 | 12.0 | 0.00 | 0.01 | 0.00 | 61 | 1010.2 |
| 20260902233003 | 56 | 314 | 1.0 | 12.0 | 0.00 | 0.01 | 0.00 | 62 | 1010.2 |
| 20260902232503 | 56 | 318 | 0.0 | 3.0 | 0.00 | 0.01 | 0.00 | 61 | 1010.3 |
| 20260902232003 | 56 | 304 | 0.0 | 4.0 | 0.00 | 0.01 | 0.00 | 61 | 1010.3 |
| 20260902231503 | 56 | 321 | 0.0 | 4.0 | 0.00 | 0.01 | 0.00 | 61 | 1010.3 |
| 20260902231003 | 57 | 320 | 0.0 | 4.0 | 0.00 | 0.01 | 0.00 | 61 | 1010.4 |
| 20260902230524 | 57 | 325 | 0.0 | 2.0 | 0.00 | 0.01 | 0.00 | 60 | 1010.4 |
| 20260902230003 | 57 | 330 | 0.0 | 2.0 | 0.00 | 0.01 | 0.00 | 60 | 1010.4 |
| 20260902225524 | 57 | 298 | 0.0 | 4.0 | 0.00 | 0.01 | 0.00 | 60 | 1010.4 |
| 20260902225003 | 57 | 299 | 0.0 | 7.0 | 0.00 | 0.01 | 0.00 | 62 | 1010.4 |
| 20260902224524 | 57 | 301 | 1.0 | 7.0 | 0.00 | 0.01 | 0.00 | 61 | 1010.5 |
| 20260902224002 | 57 | 240 | 0.0 | 4.0 | 0.00 | 0.01 | 0.00 | 61 | 1010.5 |
| 20260902223503 | 57 | 237 | 0.0 | 6.0 | 0.00 | 0.01 | 0.00 | 61 | 1010.5 |
| 20260902223003 | 57 | 260 | 1.0 | 6.0 | 0.00 | 0.01 | 0.00 | 62 | 1010.5 |
| 20260902222502 | 57 | 217 | 0.0 | 3.0 | 0.00 | 0.01 | 0.00 | 61 | 1010.5 |
| 20260902222003 | 57 | 251 | 0.0 | 3.0 | 0.00 | 0.01 | 0.00 | 61 | 1010.5 |
| 20260902221503 | 57 | 319 | 1.0 | 4.0 | 0.00 | 0.01 | 0.00 | 61 | 1010.6 |
| 20260902221003 | 57 | 306 | 1.0 | 7.0 | 0.00 | 0.01 | 0.00 | 61 | 1010.6 |
| 20260902220503 | 57 | 294 | 0.0 | 7.0 | 0.00 | 0.01 | 0.00 | 60 | 1010.6 |
| 20260902220026 | 57 | 320 | 0.0 | 3.0 | 0.00 | 0.01 | 0.00 | 58 | 1010.6 |
| 20260902215503 | 57 | 306 | 0.0 | 3.0 | 0.00 | 0.01 | 0.01 | 60 | 1010.6 |
| 20260902215002 | 57 | 315 | 1.0 | 6.0 | 0.00 | 0.01 | 0.01 | 59 | 1010.7 |
| 20260902214524 | 57 | 318 | 1.0 | 6.0 | 0.00 | 0.01 | 0.01 | 59 | 1010.6 |
| 20260902214003 | 57 | 315 | 0.0 | 5.0 | 0.00 | 0.01 | 0.01 | 58 | 1010.6 |
| 20260902213502 | 57 | 150 | 0.0 | 2.0 | 0.00 | 0.01 | 0.01 | 57 | 1010.5 |
| 20260902213003 | 57 | 181 | 0.0 | 2.0 | 0.00 | 0.01 | 0.01 | 59 | 1010.5 |
| 20260902212503 | 57 | 291 | 0.0 | 2.0 | 0.00 | 0.01 | 0.01 | 60 | 1010.6 |
| 20260902212003 | 58 | 311 | 0.0 | 4.0 | 0.00 | 0.01 | 0.01 | 59 | 1010.6 |
| 20260902211503 | 58 | 303 | 0.0 | 5.0 | 0.00 | 0.01 | 0.01 | 59 | 1010.6 |
| 20260902211024 | 58 | 259 | 0.0 | 5.0 | 0.00 | 0.01 | 0.01 | 59 | 1010.6 |
| 20260902210524 | 58 | 332 | 0.0 | 3.0 | 0.00 | 0.01 | 0.01 | 58 | 1010.6 |
| 20260902210024 | 58 | 310 | 0.0 | 3.0 | 0.00 | 0.01 | 0.01 | 59 | 1010.6 |
| 20260902205503 | 58 | 266 | 0.0 | 2.0 | 0.00 | 0.01 | 0.01 | 59 | 1010.7 |
| 20260902205024 | 58 | 305 | 0.0 | 3.0 | 0.00 | 0.01 | 0.01 | 59 | 1010.6 |
| 20260902204502 | 58 | 317 | 0.0 | 3.0 | 0.00 | 0.01 | 0.01 | 58 | 1010.6 |
| 20260902204003 | 58 | 316 | 1.0 | 5.0 | 0.00 | 0.01 | 0.01 | 58 | 1010.6 |
| 20260902203524 | 58 | 314 | 1.0 | 5.0 | 0.00 | 0.01 | 0.01 | 59 | 1010.7 |
| 20260902203002 | 58 | 310 | 0.0 | 4.0 | 0.00 | 0.01 | 0.01 | 56 | 1010.7 |
| 20260902202503 | 58 | 307 | 0.0 | 4.0 | 0.00 | 0.01 | 0.01 | 55 | 1010.7 |
| 20260902202024 | 58 | 274 | 0.0 | 1.0 | 0.00 | 0.01 | 0.01 | 53 | 1010.7 |
| 20260902201503 | 58 | 229 | 0.0 | 1.0 | 0.00 | 0.01 | 0.01 | 52 | 1010.7 |
| 20260902201003 | 58 | 298 | 0.0 | 5.0 | 0.00 | 0.01 | 0.01 | 54 | 1010.7 |
| 20260902200503 | 58 | 300 | 0.0 | 5.0 | 0.00 | 0.01 | 0.01 | 56 | 1010.6 |
| 20260902200003 | 58 | 55 | 0.0 | 2.0 | 0.00 | 0.01 | 0.01 | 54 | 1010.7 |
| 20260902195503 | 58 | 308 | 0.0 | 3.0 | 0.00 | 0.01 | 0.01 | 54 | 1010.7 |
| 20260902195003 | 58 | 286 | 0.0 | 3.0 | 0.00 | 0.01 | 0.01 | 54 | 1010.8 |
| 20260902194502 | 58 | 296 | 0.0 | 3.0 | 0.00 | 0.01 | 0.01 | 53 | 1010.8 |
| 20260902194024 | 58 | 4 | 0.0 | 3.0 | 0.00 | 0.01 | 0.01 | 54 | 1010.8 |
| 20260902193503 | 58 | 235 | 0.0 | 1.0 | 0.00 | 0.01 | 0.01 | 54 | 1010.7 |
| 20260902193003 | 58 | 170 | 0.0 | 2.0 | 0.00 | 0.01 | 0.01 | 54 | 1010.6 |
| 20260902192503 | 58 | 321 | 0.0 | 5.0 | 0.00 | 0.01 | 0.01 | 52 | 1010.6 |
| 20260902192004 | 58 | 318 | 0.0 | 5.0 | 0.00 | 0.01 | 0.01 | 53 | 1010.6 |
| 20260902191503 | 58 | 296 | 0.0 | 3.0 | 0.00 | 0.01 | 0.01 | 53 | 1010.5 |
| 20260902191003 | 58 | 303 | 0.0 | 3.0 | 0.00 | 0.01 | 0.01 | 52 | 1010.5 |
| 20260902190503 | 58 | 272 | 0.0 | 3.0 | 0.00 | 0.01 | 0.01 | 52 | 1010.5 |
| 20260902190003 | 58 | 252 | 0.0 | 3.0 | 0.00 | 0.01 | 0.01 | 53 | 1010.5 |
| 20260902185503 | 58 | 257 | 0.0 | 2.0 | 0.00 | 0.01 | 0.01 | 53 | 1010.4 |
| 20260902185003 | 58 | 207 | 0.0 | 1.0 | 0.00 | 0.01 | 0.01 | 51 | 1010.5 |
| 20260902184523 | 59 | 282 | 0.0 | 2.0 | 0.00 | 0.01 | 0.01 | 51 | 1010.5 |
| 20260902184003 | 59 | 286 | 0.0 | 2.0 | 0.00 | 0.01 | 0.01 | 51 | 1010.5 |
| 20260902183524 | 59 | 291 | 0.0 | 1.0 | 0.00 | 0.01 | 0.01 | 51 | 1010.4 |
| 20260902183002 | 59 | 307 | 0.0 | 2.0 | 0.00 | 0.01 | 0.01 | 50 | 1010.3 |
| 20260902182503 | 59 | 310 | 0.0 | 2.0 | 0.00 | 0.01 | 0.01 | 51 | 1010.4 |
| 20260902182003 | 59 | 307 | 0.0 | 1.0 | 0.00 | 0.01 | 0.01 | 51 | 1010.4 |
| 20260902181503 | 59 | 315 | 0.0 | 4.0 | 0.00 | 0.01 | 0.01 | 51 | 1010.3 |
| 20260902181003 | 59 | 306 | 0.0 | 4.0 | 0.00 | 0.01 | 0.01 | 51 | 1010.4 |
| 20260902180503 | 59 | 243 | 0.0 | 2.0 | 0.00 | 0.01 | 0.01 | 51 | 1010.4 |
| 20260902180006 | 59 | 320 | 0.0 | 2.0 | 0.00 | 0.01 | 0.01 | 52 | 1010.3 |
| 20260902175503 | 60 | 304 | 0.0 | 4.0 | 0.00 | 0.01 | 0.01 | 54 | 1010.3 |
| 20260902175003 | 60 | 307 | 1.0 | 8.0 | 0.00 | 0.01 | 0.01 | 54 | 1010.3 |
| 20260902174502 | 60 | 315 | 1.0 | 8.0 | 0.00 | 0.01 | 0.01 | 55 | 1010.4 |
| 20260902174003 | 60 | 316 | 0.0 | 6.0 | 0.00 | 0.01 | 0.01 | 56 | 1010.4 |
| 20260902173502 | 60 | 317 | 1.0 | 7.0 | 0.00 | 0.01 | 0.01 | 55 | 1010.4 |
| 20260902173024 | 60 | 317 | 1.0 | 7.0 | 0.00 | 0.01 | 0.01 | 55 | 1010.4 |
| 20260902172503 | 61 | 316 | 0.0 | 6.0 | 0.00 | 0.01 | 0.01 | 55 | 1010.4 |
| 20260902172003 | 61 | 312 | 0.0 | 6.0 | 0.00 | 0.01 | 0.01 | 56 | 1010.4 |
| 20260902171503 | 61 | 323 | 0.0 | 4.0 | 0.00 | 0.01 | 0.01 | 54 | 1010.4 |
| 20260902171024 | 61 | 318 | 0.0 | 5.0 | 0.00 | 0.01 | 0.01 | 54 | 1010.4 |
| 20260902170503 | 61 | 317 | 1.0 | 5.0 | 0.00 | 0.01 | 0.01 | 55 | 1010.4 |
| 20260902170003 | 61 | 326 | 1.0 | 4.0 | 0.00 | 0.01 | 0.01 | 54 | 1010.4 |
| 20260902165503 | 61 | 324 | 1.0 | 4.0 | 0.00 | 0.01 | 0.01 | 53 | 1010.5 |
| 20260902165024 | 62 | 308 | 1.0 | 10.0 | 0.00 | 0.01 | 0.01 | 54 | 1010.5 |
| 20260902164502 | 62 | 300 | 1.0 | 10.0 | 0.00 | 0.01 | 0.01 | 55 | 1010.5 |
| 20260902164024 | 62 | 289 | 0.0 | 7.0 | 0.00 | 0.01 | 0.01 | 57 | 1010.4 |
| 20260902163503 | 62 | 303 | 0.0 | 5.0 | 0.00 | 0.01 | 0.01 | 56 | 1010.4 |
| 20260902163003 | 62 | 299 | 0.0 | 5.0 | 0.00 | 0.01 | 0.01 | 57 | 1010.5 |
| 20260902162503 | 62 | 304 | 1.0 | 7.0 | 0.00 | 0.01 | 0.01 | 57 | 1010.5 |
| 20260902162003 | 63 | 305 | 0.0 | 7.0 | 0.00 | 0.01 | 0.01 | 57 | 1010.5 |
| 20260902161503 | 63 | 295 | 0.0 | 2.0 | 0.00 | 0.01 | 0.01 | 57 | 1010.5 |
| 20260902161003 | 63 | 302 | 1.0 | 7.0 | 0.00 | 0.01 | 0.01 | 57 | 1010.5 |
| 20260902160524 | 63 | 299 | 1.0 | 7.0 | 0.00 | 0.01 | 0.01 | 59 | 1010.5 |
| 20260902160024 | 63 | 295 | 1.0 | 7.0 | 0.00 | 0.01 | 0.01 | 59 | 1010.6 |
| 20260902155503 | 63 | 307 | 1.0 | 8.0 | 0.00 | 0.01 | 0.01 | 59 | 1010.5 |
| 20260902155003 | 63 | 310 | 1.0 | 8.0 | 0.00 | 0.01 | 0.01 | 62 | 1010.5 |
| 20260902154503 | 63 | 307 | 1.0 | 10.0 | 0.00 | 0.01 | 0.01 | 61 | 1010.5 |
| 20260902154002 | 63 | 304 | 2.0 | 10.0 | 0.00 | 0.01 | 0.01 | 62 | 1010.4 |
| 20260902153503 | 64 | 305 | 1.0 | 8.0 | 0.00 | 0.01 | 0.01 | 62 | 1010.4 |
| 20260902153003 | 64 | 308 | 1.0 | 4.0 | 0.00 | 0.01 | 0.01 | 62 | 1010.4 |
| 20260902152502 | 64 | 267 | 0.0 | 4.0 | 0.00 | 0.01 | 0.01 | 62 | 1010.4 |
| 20260902152003 | 65 | 284 | 0.0 | 4.0 | 0.00 | 0.01 | 0.01 | 62 | 1010.4 |
| 20260902151503 | 65 | 276 | 1.0 | 4.0 | 0.00 | 0.01 | 0.01 | 62 | 1010.4 |
| 20260902151003 | 65 | 270 | 0.0 | 4.0 | 0.00 | 0.01 | 0.01 | 62 | 1010.4 |
| 20260902150503 | 65 | 301 | 1.0 | 5.0 | 0.00 | 0.01 | 0.01 | 62 | 1010.4 |
| 20260902150003 | 65 | 283 | 1.0 | 7.0 | 0.00 | 0.01 | 0.01 | 60 | 1010.4 |
| 20260902145503 | 65 | 169 | 1.0 | 7.0 | 0.00 | 0.01 | 0.01 | 59 | 1010.5 |
| 20260902145003 | 65 | 305 | 1.0 | 10.0 | 0.00 | 0.01 | 0.01 | 60 | 1010.5 |
| 20260902144502 | 65 | 312 | 1.0 | 10.0 | 0.00 | 0.01 | 0.01 | 58 | 1010.6 |
| 20260902144002 | 66 | 316 | 1.0 | 7.0 | 0.00 | 0.01 | 0.01 | 62 | 1010.5 |
| 20260902143503 | 66 | 310 | 1.0 | 7.0 | 0.00 | 0.01 | 0.01 | 62 | 1010.3 |
| 20260902143003 | 66 | 291 | 1.0 | 7.0 | 0.00 | 0.01 | 0.01 | 62 | 1010.4 |
| 20260902142502 | 66 | 296 | 1.0 | 7.0 | 0.00 | 0.01 | 0.01 | 62 | 1010.4 |
| 20260902142003 | 66 | 299 | 0.0 | 4.0 | 0.00 | 0.01 | 0.01 | 62 | 1010.3 |
| 20260902141503 | 66 | 299 | 0.0 | 4.0 | 0.00 | 0.01 | 0.01 | 62 | 1010.3 |
| 20260902141003 | 66 | 291 | 0.0 | 4.0 | 0.00 | 0.01 | 0.01 | 61 | 1010.3 |
| 20260902140503 | 66 | 283 | 0.0 | 3.0 | 0.00 | 0.01 | 0.01 | 62 | 1010.2 |
| 20260902140003 | 66 | 288 | 1.0 | 5.0 | 0.00 | 0.01 | 0.01 | 60 | 1010.2 |
| 20260902135503 | 66 | 302 | 1.0 | 5.0 | 0.00 | 0.01 | 0.01 | 61 | 1010.3 |
| 20260902135024 | 66 | 309 | 1.0 | 5.0 | 0.00 | 0.01 | 0.01 | 62 | 1010.3 |
| 20260902134503 | 66 | 309 | 1.0 | 7.0 | 0.00 | 0.01 | 0.01 | 62 | 1010.2 |
| 20260902134003 | 66 | 312 | 1.0 | 7.0 | 0.00 | 0.01 | 0.01 | 62 | 1010.2 |
| 20260902133523 | 66 | 311 | 1.0 | 5.0 | 0.00 | 0.01 | 0.01 | 62 | 1010.2 |
| 20260902133003 | 66 | 309 | 1.0 | 6.0 | 0.00 | 0.01 | 0.01 | 62 | 1010.2 |
| 20260902132503 | 66 | 304 | 1.0 | 6.0 | 0.00 | 0.01 | 0.01 | 62 | 1010.3 |
| 20260902132003 | 68 | 267 | 0.0 | 2.0 | 0.00 | 0.01 | 0.01 | 61 | 1010.3 |
| 20260902131524 | 68 | 317 | 0.0 | 6.0 | 0.00 | 0.01 | 0.01 | 62 | 1010.2 |
| 20260902131003 | 68 | 320 | 1.0 | 6.0 | 0.00 | 0.01 | 0.01 | 62 | 1010.3 |
| 20260902130503 | 68 | 313 | 0.0 | 5.0 | 0.00 | 0.01 | 0.01 | 62 | 1010.3 |
| 20260902130024 | 68 | 310 | 0.0 | 2.0 | 0.00 | 0.01 | 0.01 | 62 | 1010.4 |
| 20260902125503 | 68 | 315 | 0.0 | 2.0 | 0.00 | 0.01 | 0.01 | 60 | 1010.4 |
| 20260902125003 | 69 | 314 | 1.0 | 5.0 | 0.00 | 0.01 | 0.01 | 60 | 1010.4 |
| 20260902124503 | 69 | 314 | 1.0 | 5.0 | 0.00 | 0.01 | 0.01 | 58 | 1010.4 |
| 20260902124003 | 69 | 301 | 0.0 | 1.0 | 0.00 | 0.01 | 0.01 | 60 | 1010.4 |
| 20260902123503 | 69 | 297 | 0.0 | 3.0 | 0.00 | 0.01 | 0.01 | 58 | 1010.4 |
| 20260902123024 | 69 | 297 | 1.0 | 3.0 | 0.00 | 0.01 | 0.01 | 55 | 1010.4 |
| 20260902122503 | 69 | 296 | 0.0 | 3.0 | 0.00 | 0.01 | 0.01 | 57 | 1010.5 |
| 20260902122003 | 69 | 303 | 1.0 | 6.0 | 0.00 | 0.01 | 0.01 | 57 | 1010.5 |
| 20260902121502 | 68 | 290 | 0.0 | 6.0 | 0.00 | 0.01 | 0.01 | 59 | 1010.6 |
| 20260902121003 | 68 | 302 | 1.0 | 4.0 | 0.00 | 0.01 | 0.01 | 58 | 1010.6 |
| 20260902120524 | 68 | 318 | 1.0 | 4.0 | 0.00 | 0.01 | 0.01 | 61 | 1010.5 |
| 20260902120003 | 68 | 314 | 0.0 | 3.0 | 0.00 | 0.01 | 0.01 | 59 | 1010.6 |
| 20260902115503 | 68 | 305 | 0.0 | 3.0 | 0.00 | 0.01 | 0.01 | 57 | 1010.7 |
| 20260902115003 | 68 | 309 | 0.0 | 2.0 | 0.00 | 0.01 | 0.01 | 57 | 1010.6 |
| 20260902114503 | 67 | 295 | 0.0 | 3.0 | 0.00 | 0.01 | 0.01 | 60 | 1010.6 |
| 20260902114024 | 66 | 309 | 1.0 | 4.0 | 0.00 | 0.01 | 0.01 | 59 | 1010.6 |
| 20260902113503 | 66 | 309 | 0.0 | 4.0 | 0.00 | 0.01 | 0.01 | 57 | 1010.8 |
| 20260902113023 | 66 | 304 | 0.0 | 3.0 | 0.00 | 0.01 | 0.01 | 59 | 1010.8 |
| 20260902112503 | 66 | 308 | 0.0 | 3.0 | 0.00 | 0.01 | 0.01 | 56 | 1010.8 |
| 20260902112003 | 66 | 323 | 0.0 | 4.0 | 0.00 | 0.01 | 0.01 | 58 | 1010.8 |
| 20260902111502 | 66 | 312 | 1.0 | 4.0 | 0.00 | 0.01 | 0.01 | 55 | 1010.8 |
| 20260902111024 | 66 | 306 | 0.0 | 4.0 | 0.00 | 0.01 | 0.01 | 53 | 1010.9 |
| 20260902110503 | 66 | 313 | 0.0 | 1.0 | 0.00 | 0.01 | 0.01 | 58 | 1010.8 |
| 20260902110005 | 66 | 78 | 0.0 | 2.0 | 0.00 | 0.01 | 0.01 | 59 | 1010.8 |
| 20260902105503 | 66 | 320 | 0.0 | 3.0 | 0.00 | 0.01 | 0.01 | 61 | 1010.9 |
| 20260902105024 | 66 | 306 | 0.0 | 3.0 | 0.00 | 0.01 | 0.01 | 59 | 1010.9 |
| 20260902104504 | 66 | 299 | 0.0 | 3.0 | 0.00 | 0.01 | 0.01 | 61 | 1010.8 |
| 20260902104003 | 65 | 289 | 0.0 | 2.0 | 0.00 | 0.01 | 0.01 | 58 | 1010.9 |
| 20260902103502 | 66 | 298 | 0.0 | 2.0 | 0.00 | 0.01 | 0.01 | 59 | 1010.9 |
| 20260902103003 | 66 | 312 | 0.0 | 2.0 | 0.00 | 0.01 | 0.01 | 59 | 1010.9 |
| 20260902102503 | 66 | 305 | 1.0 | 6.0 | 0.00 | 0.01 | 0.01 | 59 | 1010.9 |
| 20260902102002 | 66 | 297 | 1.0 | 6.0 | 0.00 | 0.01 | 0.01 | 59 | 1010.8 |
| 20260902101503 | 66 | 290 | 0.0 | 6.0 | 0.00 | 0.01 | 0.01 | 58 | 1010.9 |
| 20260902101003 | 66 | 305 | 1.0 | 6.0 | 0.00 | 0.01 | 0.01 | 59 | 1010.8 |
| 20260902100503 | 66 | 291 | 0.0 | 3.0 | 0.00 | 0.01 | 0.01 | 60 | 1010.9 |
| 20260902100003 | 66 | 262 | 0.0 | 2.0 | 0.00 | 0.01 | 0.01 | 59 | 1010.9 |
| 20260902095503 | 66 | 313 | 0.0 | 5.0 | 0.00 | 0.01 | 0.01 | 60 | 1010.9 |
| 20260902095003 | 65 | 301 | 0.0 | 5.0 | 0.00 | 0.01 | 0.01 | 62 | 1011.0 |
| 20260902094503 | 65 | 310 | 1.0 | 5.0 | 0.00 | 0.01 | 0.01 | 60 | 1011.0 |
| 20260902094023 | 65 | 326 | 1.0 | 5.0 | 0.00 | 0.01 | 0.01 | 60 | 1010.9 |
| 20260902093503 | 66 | 286 | 0.0 | 2.0 | 0.00 | 0.01 | 0.01 | 61 | 1010.9 |
| 20260902093003 | 66 | 289 | 0.0 | 4.0 | 0.00 | 0.01 | 0.01 | 60 | 1010.9 |
| 20260902092503 | 66 | 289 | 1.0 | 5.0 | 0.00 | 0.01 | 0.01 | 60 | 1011.0 |
| 20260902092003 | 65 | 286 | 0.0 | 5.0 | 0.00 | 0.01 | 0.01 | 59 | 1010.9 |
| 20260902091503 | 66 | 306 | 1.0 | 7.0 | 0.00 | 0.01 | 0.01 | 61 | 1010.8 |
| 20260902091003 | 66 | 305 | 0.0 | 7.0 | 0.00 | 0.01 | 0.01 | 61 | 1010.8 |
| 20260902090525 | 66 | 297 | 0.0 | 4.0 | 0.00 | 0.01 | 0.01 | 60 | 1010.8 |
| 20260902090003 | 65 | 311 | 1.0 | 5.0 | 0.00 | 0.01 | 0.01 | 62 | 1010.7 |
| 20260902085503 | 65 | 297 | 1.0 | 5.0 | 0.00 | 0.01 | 0.01 | 61 | 1010.7 |
| 20260902085003 | 65 | 218 | 0.0 | 3.0 | 0.00 | 0.01 | 0.01 | 60 | 1010.8 |
| 20260902084503 | 64 | 307 | 1.0 | 6.0 | 0.00 | 0.01 | 0.01 | 61 | 1010.7 |
| 20260902084024 | 64 | 305 | 1.0 | 6.0 | 0.00 | 0.01 | 0.01 | 61 | 1010.7 |
| 20260902083503 | 64 | 300 | 1.0 | 6.0 | 0.00 | 0.01 | 0.01 | 62 | 1010.6 |
| 20260902083003 | 64 | 295 | 1.0 | 4.0 | 0.00 | 0.01 | 0.01 | 61 | 1010.6 |
| 20260902082503 | 64 | 294 | 0.0 | 4.0 | 0.00 | 0.01 | 0.01 | 62 | 1010.7 |
| 20260902082003 | 65 | 297 | 0.0 | 3.0 | 0.00 | 0.01 | 0.01 | 62 | 1010.5 |
| 20260902081503 | 65 | 302 | 0.0 | 3.0 | 0.00 | 0.01 | 0.01 | 61 | 1010.5 |
| 20260902081024 | 64 | 323 | 0.0 | 6.0 | 0.00 | 0.01 | 0.01 | 61 | 1010.5 |
| 20260902080503 | 64 | 312 | 0.0 | 6.0 | 0.00 | 0.01 | 0.01 | 57 | 1010.4 |
| 20260902080003 | 64 | 308 | 0.0 | 4.0 | 0.00 | 0.01 | 0.01 | 56 | 1010.4 |
| 20260902075503 | 64 | 272 | 0.0 | 2.0 | 0.00 | 0.01 | 0.01 | 56 | 1010.4 |
| 20260902075003 | 64 | 264 | 0.0 | 3.0 | 0.00 | 0.01 | 0.01 | 50 | 1010.4 |
| 20260902074503 | 63 | 272 | 0.0 | 3.0 | 0.00 | 0.01 | 0.01 | 49 | 1010.3 |
| 20260902074003 | 63 | 303 | 1.0 | 7.0 | 0.00 | 0.01 | 0.01 | 34 | 1010.3 |
| 20260902073503 | 62 | 304 | 1.0 | 7.0 | 0.00 | 0.01 | 0.01 | 33 | 1010.2 |
| 20260902073024 | 61 | 289 | 0.0 | 3.0 | 0.00 | 0.01 | 0.01 | 16 | 1010.1 |
| 20260902072503 | 60 | 286 | 0.0 | 5.0 | 0.00 | 0.01 | 0.01 | 4 | 1010.1 |
| 20260902072002 | 60 | 278 | 1.0 | 5.0 | 0.00 | 0.01 | 0.01 | 4 | 1010.1 |
| 20260902071503 | 60 | 293 | 1.0 | 3.0 | 0.00 | 0.01 | 0.01 | 1 | 1010.0 |
| 20260902071003 | 60 | 292 | 1.0 | 3.0 | 0.00 | 0.01 | 0.01 | 1 | 1010.0 |
| 20260902070503 | 60 | 278 | 0.0 | 3.0 | 0.00 | 0.01 | 0.01 | 1 | 1010.0 |
| 20260902070003 | 60 | 287 | 0.0 | 4.0 | 0.00 | 0.01 | 0.01 | 1 | 1009.9 |